createdAt,value
2023-02-22T00:02:14.183Z,2.90
2023-02-22T00:04:42.612Z,3.03
2023-02-22T00:07:10.388Z,2.99
2023-02-22T00:09:38.302Z,2.94
2023-02-22T00:12:06.226Z,2.83
2023-02-22T00:14:34.028Z,3.00
2023-02-22T00:17:02.668Z,2.93
2023-02-22T00:19:31.295Z,2.79
2023-02-22T00:22:03.127Z,2.56
2023-02-22T00:24:32.993Z,2.71
2023-02-22T00:27:00.947Z,2.72
2023-02-22T00:29:29.728Z,2.64
2023-02-22T00:31:57.516Z,2.44
2023-02-22T00:34:25.447Z,2.33
2023-02-22T00:36:53.360Z,2.32
2023-02-22T00:39:21.189Z,2.25
2023-02-22T00:41:49.989Z,2.27
2023-02-22T00:44:17.838Z,2.29
2023-02-22T00:46:46.541Z,2.43
2023-02-22T00:49:17.135Z,2.54
2023-02-22T00:51:45.657Z,2.39
2023-02-22T00:54:14.600Z,2.25
2023-02-22T00:56:42.649Z,2.12
2023-02-22T00:59:10.469Z,2.34
2023-02-22T01:01:38.400Z,2.32
2023-02-22T01:04:07.011Z,2.42
2023-02-22T01:06:34.940Z,2.50
2023-02-22T01:09:03.936Z,2.35
2023-02-22T01:11:31.759Z,2.14
2023-02-22T01:14:00.248Z,2.30
2023-02-22T01:16:28.452Z,2.28
2023-02-22T01:18:56.460Z,2.39
2023-02-22T01:21:24.337Z,2.32
2023-02-22T01:23:52.206Z,2.30
2023-02-22T01:26:20.088Z,2.19
2023-02-22T01:28:48.051Z,2.23
2023-02-22T01:31:16.239Z,2.00
2023-02-22T01:33:44.965Z,1.92
2023-02-22T01:36:12.861Z,2.08
2023-02-22T01:38:40.754Z,2.02
2023-02-22T01:41:08.904Z,1.61
2023-02-22T01:43:37.971Z,1.69
2023-02-22T01:46:26.672Z,1.77
2023-02-22T01:48:59.505Z,1.92
2023-02-22T01:51:37.782Z,1.92
2023-02-22T01:54:25.763Z,2.00
2023-02-22T01:57:33.765Z,1.98
2023-02-22T02:00:11.374Z,1.99
2023-02-22T02:02:56.800Z,1.71
2023-02-22T02:05:31.497Z,1.89
2023-02-22T02:08:03.873Z,1.89
2023-02-22T02:10:32.638Z,1.98
2023-02-22T02:13:04.208Z,2.00
2023-02-22T02:15:33.969Z,2.04
2023-02-22T02:18:07.264Z,1.75
2023-02-22T02:21:03.508Z,1.58
2023-02-22T02:24:16.203Z,1.35
2023-02-22T02:27:09.391Z,1.50
2023-02-22T02:30:07.151Z,1.32
2023-02-22T02:32:54.197Z,1.46
2023-02-22T02:35:49.462Z,1.39
2023-02-22T02:38:45.758Z,1.47
2023-02-22T02:41:19.622Z,1.27
2023-02-22T02:43:59.965Z,1.44
2023-02-22T02:46:56.432Z,1.20
2023-02-22T02:49:37.408Z,0.96
2023-02-22T02:52:09.945Z,0.92
2023-02-22T02:57:57.523Z,0.76
2023-02-22T03:00:31.730Z,0.91
2023-02-22T03:03:11.462Z,1.07
2023-02-22T03:06:06.068Z,1.13
2023-02-22T03:08:36.722Z,1.18
2023-02-22T03:11:07.352Z,1.27
2023-02-22T03:13:52.323Z,0.93
2023-02-22T03:16:39.799Z,1.02
2023-02-22T03:19:27.076Z,1.17
2023-02-22T03:22:10.277Z,1.16
2023-02-22T03:25:09.170Z,1.23
2023-02-22T03:27:48.588Z,1.24
2023-02-22T03:30:27.250Z,1.32
2023-02-22T03:33:09.309Z,1.29
2023-02-22T03:35:48.446Z,1.18
2023-02-22T03:38:20.527Z,1.10
2023-02-22T03:40:54.672Z,1.17
2023-02-22T03:43:28.034Z,0.90
2023-02-22T03:46:00.328Z,0.74
2023-02-22T03:48:31.650Z,0.96
2023-02-22T03:51:04.799Z,0.97
2023-02-22T03:53:37.381Z,0.96
2023-02-22T03:56:11.177Z,1.05
2023-02-22T03:58:44.497Z,0.94
2023-02-22T04:01:13.457Z,0.90
2023-02-22T04:03:42.445Z,0.93
2023-02-22T04:06:11.604Z,0.93
2023-02-22T04:08:40.453Z,0.96
2023-02-22T04:11:09.213Z,0.83
2023-02-22T04:13:37.180Z,0.79
2023-02-22T04:16:05.544Z,0.83
2023-02-22T04:18:33.572Z,0.93
2023-02-22T04:21:02.775Z,0.93
2023-02-22T04:23:41.540Z,0.96
2023-02-22T04:26:10.149Z,0.61
2023-02-22T04:28:38.053Z,0.52
2023-02-22T04:31:17.163Z,0.44
2023-02-22T04:33:45.623Z,0.86
2023-02-22T04:36:17.172Z,0.77
2023-02-22T04:38:46.262Z,0.95
2023-02-22T04:41:14.493Z,0.93
2023-02-22T04:43:42.946Z,0.67
2023-02-22T04:46:20.146Z,0.53
2023-02-22T04:48:48.204Z,0.47
2023-02-22T04:51:17.681Z,0.22
2023-02-22T04:53:59.909Z,0.49
2023-02-22T04:56:27.865Z,0.51
2023-02-22T04:58:55.832Z,0.42
2023-02-22T05:01:24.533Z,0.35
2023-02-22T05:03:52.446Z,0.43
2023-02-22T05:06:20.335Z,0.46
2023-02-22T05:08:48.258Z,0.55
2023-02-22T05:11:16.490Z,0.71
2023-02-22T05:13:44.587Z,0.57
2023-02-22T05:16:12.694Z,0.47
2023-02-22T05:18:41.357Z,0.50
2023-02-22T05:21:09.399Z,0.59
2023-02-22T05:23:37.290Z,0.65
2023-02-22T05:26:06.815Z,0.66
2023-02-22T05:28:34.860Z,0.74
2023-02-22T05:31:02.993Z,0.67
2023-02-22T05:33:30.848Z,0.55
2023-02-22T05:35:58.766Z,0.69
2023-02-22T05:38:26.764Z,0.63
2023-02-22T05:40:54.708Z,0.76
2023-02-22T05:43:23.223Z,0.78
2023-02-22T05:45:51.127Z,0.84
2023-02-22T05:48:21.250Z,0.51
2023-02-22T05:50:50.310Z,0.60
2023-02-22T05:53:18.621Z,0.67
2023-02-22T05:55:46.713Z,0.86
2023-02-22T05:58:15.446Z,0.54
2023-02-22T06:00:43.889Z,0.67
2023-02-22T06:03:13.036Z,0.37
2023-02-22T06:05:42.471Z,0.70
2023-02-22T06:08:11.402Z,0.81
2023-02-22T06:10:39.300Z,0.81
2023-02-22T06:13:07.825Z,0.88
2023-02-22T06:15:35.733Z,1.10
2023-02-22T06:18:03.916Z,1.18
2023-02-22T06:20:33.564Z,1.20
2023-02-22T06:23:01.789Z,1.00
2023-02-22T06:25:34.242Z,1.07
2023-02-22T06:28:02.434Z,1.34
2023-02-22T06:30:31.118Z,1.60
2023-02-22T06:32:59.231Z,1.70
2023-02-22T06:35:27.345Z,1.62
2023-02-22T06:37:55.325Z,1.74
2023-02-22T06:40:23.218Z,1.99
2023-02-22T06:42:51.224Z,2.12
2023-02-22T06:45:19.190Z,2.23
2023-02-22T06:47:47.263Z,2.10
2023-02-22T06:50:28.586Z,2.36
2023-02-22T06:52:57.919Z,2.51
2023-02-22T06:55:28.663Z,2.73
2023-02-22T06:57:56.798Z,2.80
2023-02-22T07:00:27.201Z,2.74
2023-02-22T07:02:56.207Z,2.81
2023-02-22T07:05:25.331Z,2.99
2023-02-22T07:07:54.270Z,3.20
2023-02-22T07:10:27.077Z,3.40
2023-02-22T07:12:55.554Z,3.44
2023-02-22T07:15:25.277Z,3.47
2023-02-22T07:17:54.013Z,3.55
2023-02-22T07:20:26.626Z,3.56
2023-02-22T07:22:55.684Z,3.86
2023-02-22T07:25:24.658Z,3.99
2023-02-22T07:27:55.211Z,4.15
2023-02-22T07:30:32.468Z,4.28
2023-02-22T07:33:02.606Z,4.46
2023-02-22T07:35:38.668Z,4.60
2023-02-22T07:38:08.525Z,4.84
2023-02-22T07:40:39.320Z,5.10
2023-02-22T07:43:21.694Z,5.06
2023-02-22T07:45:52.199Z,5.14
2023-02-22T07:48:21.894Z,5.27
2023-02-22T07:50:50.754Z,5.51
2023-02-22T07:53:21.902Z,5.90
2023-02-22T07:55:51.331Z,6.95
2023-02-22T07:58:22.856Z,10.19
2023-02-22T08:00:51.171Z,13.85
2023-02-22T08:03:21.447Z,16.09
2023-02-22T08:05:52.427Z,17.20
2023-02-22T08:08:20.845Z,18.77
2023-02-22T08:10:50.645Z,19.07
2023-02-22T08:13:20.105Z,19.09
2023-02-22T08:15:48.668Z,18.93
2023-02-22T08:18:19.291Z,18.59
2023-02-22T08:20:49.353Z,18.67
2023-02-22T08:23:18.832Z,18.82
2023-02-22T08:25:46.777Z,19.10
2023-02-22T08:28:17.581Z,18.11
2023-02-22T08:30:46.437Z,17.80
2023-02-22T08:33:19.588Z,17.75
2023-02-22T08:35:49.947Z,17.81
2023-02-22T08:38:24.058Z,17.21
2023-02-22T08:40:52.092Z,16.88
2023-02-22T08:43:21.605Z,16.99
2023-02-22T08:45:50.383Z,17.62
2023-02-22T08:48:19.181Z,18.41
2023-02-22T08:50:47.200Z,19.92
2023-02-22T08:53:16.533Z,21.56
2023-02-22T08:55:45.275Z,22.59
2023-02-22T08:58:14.256Z,22.16
2023-02-22T09:00:44.979Z,22.17
2023-02-22T09:03:15.134Z,21.32
2023-02-22T09:05:44.585Z,21.58
2023-02-22T09:08:13.398Z,21.79
2023-02-22T09:10:41.365Z,21.68
2023-02-22T09:13:09.438Z,22.37
2023-02-22T09:19:52.364Z,24.64
2023-02-22T09:22:20.441Z,24.82
2023-02-22T09:24:48.234Z,24.47
2023-02-22T09:27:19.658Z,24.20
2023-02-22T09:29:53.853Z,23.10
2023-02-22T09:32:23.626Z,22.58
2023-02-22T09:34:52.526Z,22.91
2023-02-22T09:37:21.145Z,22.87
2023-02-22T09:39:49.346Z,22.17
2023-02-22T09:42:17.550Z,21.57
2023-02-22T09:44:54.358Z,22.37
2023-02-22T09:47:32.673Z,23.44
2023-02-22T09:50:06.099Z,23.16
2023-02-22T09:52:41.172Z,24.03
2023-02-22T09:55:31.404Z,25.72
2023-02-22T09:58:02.936Z,26.80
2023-02-22T10:00:41.167Z,27.20
2023-02-22T10:03:28.469Z,27.12
2023-02-22T10:06:21.532Z,26.31
2023-02-22T10:08:54.041Z,23.75
2023-02-22T10:12:09.988Z,23.36
2023-02-22T10:15:08.981Z,23.45
2023-02-22T10:17:53.824Z,24.63
2023-02-22T10:20:39.801Z,25.48
2023-02-22T10:23:17.526Z,26.28
2023-02-22T10:25:50.860Z,26.05
2023-02-22T10:28:25.007Z,25.50
2023-02-22T10:30:59.415Z,25.68
2023-02-22T10:33:30.422Z,25.74
2023-02-22T10:35:58.928Z,25.85
2023-02-22T10:38:30.625Z,26.62
2023-02-22T10:41:11.052Z,26.64
2023-02-22T10:43:41.917Z,27.45
2023-02-22T10:46:15.648Z,27.72
2023-02-22T10:48:47.668Z,27.91
2023-02-22T10:51:15.632Z,27.92
2023-02-22T10:53:49.291Z,27.00
2023-02-22T10:56:23.870Z,27.03
2023-02-22T10:58:54.521Z,26.32
2023-02-22T11:01:24.780Z,26.84
2023-02-22T11:04:15.615Z,25.86
2023-02-22T11:06:46.943Z,26.19
2023-02-22T11:09:24.241Z,25.02
2023-02-22T11:12:11.145Z,24.08
2023-02-22T11:14:39.399Z,22.27
2023-02-22T11:17:10.850Z,21.57
2023-02-22T11:19:47.489Z,22.21
2023-02-22T11:22:37.853Z,22.80
2023-02-22T11:25:07.791Z,22.30
2023-02-22T11:27:41.047Z,23.21
2023-02-22T11:30:29.355Z,24.21
2023-02-22T11:33:03.430Z,25.60
2023-02-22T11:35:52.943Z,26.15
2023-02-22T11:38:30.934Z,26.54
2023-02-22T11:41:15.853Z,26.66
2023-02-22T11:43:46.443Z,26.43
2023-02-22T11:46:27.128Z,25.94
2023-02-22T11:49:04.815Z,25.47
2023-02-22T11:51:53.898Z,25.20
2023-02-22T11:54:36.912Z,24.00
2023-02-22T11:57:27.727Z,22.92
2023-02-22T12:00:39.669Z,21.76
2023-02-22T12:03:59.768Z,21.55
2023-02-22T12:06:51.858Z,21.08
2023-02-22T12:09:38.618Z,20.70
2023-02-22T12:12:20.402Z,20.43
2023-02-22T12:15:14.176Z,20.54
2023-02-22T12:18:00.244Z,20.55
2023-02-22T12:20:39.936Z,20.28
2023-02-22T12:23:10.700Z,19.66
2023-02-22T12:25:47.157Z,19.95
2023-02-22T12:28:30.495Z,20.05
2023-02-22T12:31:14.639Z,19.56
2023-02-22T12:34:13.906Z,19.45
2023-02-22T12:36:54.077Z,19.64
2023-02-22T12:39:53.147Z,19.46
2023-02-22T12:42:44.051Z,19.21
2023-02-22T12:45:17.479Z,19.32
2023-02-22T12:47:57.393Z,19.15
2023-02-22T12:50:29.962Z,19.11
2023-02-22T12:53:13.554Z,19.08
2023-02-22T12:55:47.896Z,19.40
2023-02-22T12:58:23.430Z,19.59
2023-02-22T13:01:00.493Z,19.59
2023-02-22T13:03:42.898Z,19.24
2023-02-22T13:06:19.575Z,18.96
2023-02-22T13:09:26.926Z,18.60
2023-02-22T13:12:16.932Z,18.40
2023-02-22T13:14:59.881Z,18.34
2023-02-22T13:17:31.024Z,18.42
2023-02-22T13:20:07.326Z,18.34
2023-02-22T13:22:42.376Z,18.33
2023-02-22T13:25:14.746Z,18.45
2023-02-22T13:27:59.853Z,18.25
2023-02-22T13:30:46.224Z,18.10
2023-02-22T13:33:35.744Z,18.25
2023-02-22T13:36:18.517Z,18.70
2023-02-22T13:39:08.897Z,18.58
2023-02-22T13:41:51.685Z,18.78
2023-02-22T13:44:36.421Z,19.15
2023-02-22T13:47:16.512Z,19.40
2023-02-22T13:50:06.719Z,19.19
2023-02-22T13:52:40.160Z,19.54
2023-02-22T13:55:17.895Z,19.67
2023-02-22T13:57:50.043Z,19.66
2023-02-22T14:00:21.417Z,19.38
2023-02-22T14:03:01.897Z,19.30
2023-02-22T14:05:51.944Z,18.87
2023-02-22T14:08:19.892Z,18.78
2023-02-22T14:10:51.859Z,18.87
2023-02-22T14:13:23.713Z,18.94
2023-02-22T14:16:00.551Z,18.86
2023-02-22T14:18:44.127Z,18.66
2023-02-22T14:21:21.178Z,18.56
2023-02-22T14:23:50.663Z,18.36
2023-02-22T14:26:28.744Z,18.33
2023-02-22T14:29:03.028Z,18.02
2023-02-22T14:31:41.437Z,17.83
2023-02-22T14:34:12.392Z,17.71
2023-02-22T14:36:48.454Z,17.48
2023-02-22T14:39:16.343Z,17.34
2023-02-22T14:41:55.175Z,17.20
2023-02-22T14:44:30.708Z,17.01
2023-02-22T14:47:05.177Z,16.92
2023-02-22T14:49:40.321Z,16.72
2023-02-22T14:52:21.965Z,16.56
2023-02-22T14:55:05.309Z,16.43
2023-02-22T14:57:43.377Z,16.37
2023-02-22T15:00:22.938Z,16.13
2023-02-22T15:02:57.600Z,16.11
2023-02-22T15:05:31.395Z,16.08
2023-02-22T15:08:06.766Z,15.98
2023-02-22T15:10:40.013Z,15.88
2023-02-22T15:13:25.367Z,15.84
2023-02-22T15:16:01.838Z,15.70
2023-02-22T15:18:43.227Z,15.69
2023-02-22T15:21:16.498Z,15.59
2023-02-22T15:23:54.027Z,15.56
2023-02-22T15:27:00.343Z,15.40
2023-02-22T15:29:37.576Z,15.44
2023-02-22T15:32:32.114Z,15.23
2023-02-22T15:35:13.994Z,15.15
2023-02-22T15:37:44.694Z,15.02
2023-02-22T15:40:21.333Z,14.94
2023-02-22T15:42:53.468Z,14.93
2023-02-22T15:45:25.521Z,14.86
2023-02-22T15:47:58.841Z,14.34
2023-02-22T15:50:33.625Z,14.34
2023-02-22T15:53:08.093Z,14.30
2023-02-22T15:55:42.057Z,14.19
2023-02-22T15:58:13.121Z,14.13
2023-02-22T16:00:50.361Z,13.96
2023-02-22T16:03:28.979Z,13.87
2023-02-22T16:05:58.940Z,13.83
2023-02-22T16:08:54.435Z,13.74
2023-02-22T16:11:33.506Z,13.51
2023-02-22T16:14:08.004Z,13.47
2023-02-22T16:16:41.983Z,13.40
2023-02-22T16:19:37.629Z,13.36
2023-02-22T16:22:14.021Z,13.34
2023-02-22T16:24:45.045Z,13.05
2023-02-22T16:27:13.525Z,13.04
2023-02-22T16:29:42.961Z,12.93
2023-02-22T16:32:12.257Z,12.92
2023-02-22T16:34:40.593Z,12.90
2023-02-22T16:37:23.746Z,12.75
2023-02-22T16:39:52.510Z,12.74
2023-02-22T16:42:24.612Z,12.48
2023-02-22T16:44:53.992Z,12.35
2023-02-22T16:47:22.682Z,12.34
2023-02-22T16:49:53.262Z,12.28
2023-02-22T16:52:21.853Z,12.14
2023-02-22T16:54:52.137Z,12.08
2023-02-22T16:57:23.019Z,11.97
2023-02-22T16:59:53.200Z,11.89
2023-02-22T17:02:22.065Z,11.73
2023-02-22T17:04:50.682Z,11.48
2023-02-22T17:07:21.202Z,11.46
2023-02-22T17:09:51.310Z,11.27
2023-02-22T17:12:19.726Z,11.23
2023-02-22T17:14:48.184Z,11.14
2023-02-22T17:17:16.923Z,10.91
2023-02-22T17:19:45.260Z,10.75
2023-02-22T17:22:22.246Z,10.80
2023-02-22T17:24:50.734Z,10.71
2023-02-22T17:27:19.475Z,10.61
2023-02-22T17:29:48.884Z,10.57
2023-02-22T17:32:17.331Z,10.53
2023-02-22T17:34:45.880Z,10.35
2023-02-22T17:37:14.168Z,10.17
2023-02-22T17:39:42.875Z,10.17
2023-02-22T17:42:11.477Z,10.06
2023-02-22T17:44:39.998Z,10.05
2023-02-22T17:47:09.342Z,9.95
2023-02-22T17:49:38.050Z,9.75
2023-02-22T17:52:06.659Z,9.60
2023-02-22T17:54:35.146Z,9.51
2023-02-22T17:57:03.890Z,9.48
2023-02-22T17:59:32.426Z,9.39
2023-02-22T18:02:01.471Z,9.25
2023-02-22T18:04:32.631Z,9.26
2023-02-22T18:07:01.239Z,9.27
2023-02-22T18:09:29.914Z,9.15
2023-02-22T18:11:57.992Z,9.18
2023-02-22T18:14:25.883Z,8.99
2023-02-22T18:16:53.894Z,8.94
2023-02-22T18:19:23.349Z,9.03
2023-02-22T18:21:52.766Z,9.08
2023-02-22T18:24:20.812Z,8.97
2023-02-22T18:26:49.785Z,8.89
2023-02-22T18:29:17.770Z,8.67
2023-02-22T18:31:45.966Z,8.34
2023-02-22T18:34:14.037Z,8.46
2023-02-22T18:36:42.068Z,8.39
2023-02-22T18:39:11.965Z,8.37
2023-02-22T18:41:39.871Z,8.30
2023-02-22T18:44:10.769Z,8.08
2023-02-22T18:46:38.773Z,7.70
2023-02-22T18:49:11.636Z,7.75
2023-02-22T18:51:43.840Z,7.86
2023-02-22T18:54:15.760Z,7.80
2023-02-22T18:56:43.773Z,7.43
2023-02-22T18:59:12.654Z,7.55
2023-02-22T19:01:41.388Z,7.66
2023-02-22T19:04:10.473Z,7.50
2023-02-22T19:06:39.649Z,7.32
2023-02-22T19:09:08.927Z,7.37
2023-02-22T19:11:37.677Z,7.32
2023-02-22T19:14:05.702Z,7.39
2023-02-22T19:16:33.757Z,7.39
2023-02-22T19:19:01.670Z,7.18
2023-02-22T19:21:31.889Z,7.24
2023-02-22T19:24:03.383Z,7.15
2023-02-22T19:26:32.242Z,6.91
2023-02-22T19:29:11.378Z,7.15
2023-02-22T19:31:41.960Z,7.09
2023-02-22T19:34:31.507Z,7.07
2023-02-22T19:37:22.399Z,7.08
2023-02-22T19:39:50.479Z,7.10
2023-02-22T19:42:18.345Z,6.89
2023-02-22T19:44:48.619Z,6.88
2023-02-22T19:47:17.221Z,6.89
2023-02-22T19:49:45.861Z,6.74
2023-02-22T19:52:14.374Z,6.80
2023-02-22T19:54:43.236Z,6.73
2023-02-22T19:57:12.262Z,6.63
2023-02-22T19:59:40.817Z,6.63
2023-02-22T20:02:12.082Z,6.63
2023-02-22T20:04:40.566Z,6.43
2023-02-22T20:07:09.115Z,6.11
2023-02-22T20:09:37.706Z,6.17
2023-02-22T20:12:06.859Z,6.25
2023-02-22T20:14:36.051Z,5.91
2023-02-22T20:17:05.467Z,5.98
2023-02-22T20:19:33.781Z,6.06
2023-02-22T20:22:02.165Z,5.99
2023-02-22T20:24:30.697Z,5.75
2023-02-22T20:26:59.267Z,5.78
2023-02-22T20:29:30.233Z,5.92
2023-02-22T20:32:00.632Z,5.71
2023-02-22T20:34:36.418Z,5.85
2023-02-22T20:37:05.253Z,5.88
2023-02-22T20:39:33.935Z,5.93
2023-02-22T20:42:03.710Z,6.00
2023-02-22T20:44:31.728Z,5.71
2023-02-22T20:47:00.010Z,5.70
2023-02-22T20:49:28.587Z,5.78
2023-02-22T20:51:57.234Z,5.79
2023-02-22T20:54:25.717Z,5.44
2023-02-22T20:56:54.074Z,5.41
2023-02-22T20:59:22.789Z,5.37
2023-02-22T21:01:53.349Z,5.26
2023-02-22T21:04:22.672Z,5.32
2023-02-22T21:06:50.862Z,5.26
2023-02-22T21:09:20.936Z,4.99
2023-02-22T21:11:49.550Z,4.99
2023-02-22T21:14:20.230Z,5.02
2023-02-22T21:16:51.519Z,4.84
2023-02-22T21:19:25.860Z,4.87
2023-02-22T21:21:56.658Z,4.94
2023-02-22T21:24:26.954Z,4.90
2023-02-22T21:26:59.032Z,4.93
2023-02-22T21:29:29.003Z,4.80
2023-02-22T21:31:57.365Z,4.78
2023-02-22T21:34:26.249Z,4.73
2023-02-22T21:36:54.853Z,4.79
2023-02-22T21:39:27.968Z,4.89
2023-02-22T21:42:00.770Z,4.77
2023-02-22T21:44:29.753Z,4.81
2023-02-22T21:46:58.131Z,4.81
2023-02-22T21:49:26.487Z,4.75
2023-02-22T21:51:54.634Z,4.76
2023-02-22T21:54:23.333Z,4.76
2023-02-22T21:56:51.687Z,4.74
2023-02-22T21:59:21.331Z,4.58
2023-02-22T22:01:56.378Z,4.60
2023-02-22T22:04:28.807Z,4.58
2023-02-22T22:06:59.339Z,4.60
2023-02-22T22:09:33.286Z,4.59
2023-02-22T22:12:05.510Z,4.53
2023-02-22T22:14:34.752Z,4.28
2023-02-22T22:17:05.846Z,4.14
2023-02-22T22:19:41.822Z,4.19
2023-02-22T22:22:10.546Z,4.04
2023-02-22T22:24:41.833Z,3.88
2023-02-22T22:27:12.530Z,3.93
2023-02-22T22:29:43.744Z,3.98
2023-02-22T22:32:12.031Z,4.12
2023-02-22T22:34:40.411Z,3.93
2023-02-22T22:37:08.884Z,3.94
2023-02-22T22:39:38.721Z,4.05
2023-02-22T22:42:06.672Z,4.06
2023-02-22T22:44:42.389Z,4.02
2023-02-22T22:47:14.046Z,4.00
2023-02-22T22:49:42.917Z,4.08
2023-02-22T22:52:14.159Z,4.19
2023-02-22T22:54:43.668Z,4.19
2023-02-22T22:57:11.967Z,4.02
2023-02-22T22:59:40.008Z,3.76
2023-02-22T23:02:11.591Z,3.91
2023-02-22T23:04:39.577Z,3.87
2023-02-22T23:07:07.439Z,3.89
2023-02-22T23:09:37.722Z,3.79
2023-02-22T23:12:09.389Z,3.71
2023-02-22T23:14:44.252Z,3.75
2023-02-22T23:17:31.703Z,3.35
2023-02-22T23:19:59.808Z,3.12
2023-02-22T23:22:28.084Z,3.20
2023-02-22T23:24:55.958Z,3.04
2023-02-22T23:27:24.017Z,3.02
2023-02-22T23:29:52.678Z,3.14
2023-02-22T23:32:21.450Z,3.20
2023-02-22T23:34:52.360Z,3.26
2023-02-22T23:37:20.978Z,3.17
2023-02-22T23:39:51.145Z,3.33
2023-02-22T23:42:19.268Z,3.31
2023-02-22T23:44:48.183Z,3.31
2023-02-22T23:47:16.352Z,3.38
2023-02-22T23:49:49.588Z,3.45
2023-02-22T23:52:24.341Z,3.37
2023-02-22T23:54:54.208Z,3.38
2023-02-22T23:57:24.323Z,3.47
2023-02-22T23:59:52.181Z,3.24
